Time;durP1;ratioP1;P1;durP2;ratioP2;P2;SDS_P1;SDS_P2;PMS_P1;PMS_P2;Temp;Humidity;BMP_temperature;BMP_pressure;BME280_temperature;BME280_humidity;BME280_pressure;Samples;Min_cycle;Max_cycle;Signal;HPM_P1;HPM_P2
2023/01/09 00:00:22;;;;;;;4.30;3.57;;;5.80;1.00;;;;;;4946838;28;20201;-50
2023/01/09 00:02:48;;;;;;;6.50;3.60;;;5.80;1.00;;;;;;4956542;29;20405;-50
2023/01/09 00:05:16;;;;;;;5.27;3.93;;;5.70;1.00;;;;;;4947483;29;20528;-50
2023/01/09 00:07:41;;;;;;;6.07;3.80;;;5.70;1.00;;;;;;4937531;29;20617;-50
2023/01/09 00:10:08;;;;;;;4.73;4.07;;;5.60;1.00;;;;;;4945785;29;20454;-50
2023/01/09 00:12:34;;;;;;;5.63;4.40;;;5.60;1.00;;;;;;4956553;29;20217;-49
2023/01/09 00:15:00;;;;;;;5.20;3.80;;;5.70;1.00;;;;;;4946074;28;20441;-49
2023/01/09 00:17:26;;;;;;;4.77;4.00;;;5.80;1.00;;;;;;4953867;28;20504;-50
2023/01/09 00:19:51;;;;;;;5.00;3.60;;;5.80;1.00;;;;;;4947100;28;20190;-49
2023/01/09 00:22:17;;;;;;;4.90;4.37;;;5.90;1.00;;;;;;4954443;29;20206;-49
2023/01/09 00:24:42;;;;;;;7.23;4.43;;;5.90;1.00;;;;;;4945632;29;20252;-50
2023/01/09 00:27:08;;;;;;;5.20;3.83;;;5.90;1.00;;;;;;4955264;29;20671;-49
2023/01/09 00:29:33;;;;;;;4.77;3.73;;;5.90;1.00;;;;;;4944211;29;20534;-51
2023/01/09 00:31:59;;;;;;;5.27;4.50;;;5.90;1.00;;;;;;4951366;29;20200;-50
2023/01/09 00:34:25;;;;;;;5.33;3.83;;;5.90;1.00;;;;;;4945430;29;20193;-49
2023/01/09 00:36:54;;;;;;;5.60;4.30;;;5.90;1.00;;;;;;4938075;29;20225;-49
2023/01/09 00:39:20;;;;;;;7.17;4.23;;;5.90;1.00;;;;;;4943917;28;20241;-49
2023/01/09 00:41:50;;;;;;;4.50;3.60;;;5.80;1.00;;;;;;4936363;29;20426;-49
2023/01/09 00:44:31;;;;;;;5.13;4.47;;;5.80;1.00;;;;;;4939437;29;20531;-49
2023/01/09 00:47:06;;;;;;;4.13;3.73;;;6.00;1.00;;;;;;4945115;29;20460;-50
2023/01/09 00:49:35;;;;;;;4.47;3.40;;;5.90;1.00;;;;;;4932234;29;20547;-49
2023/01/09 00:52:01;;;;;;;4.70;3.63;;;6.00;1.00;;;;;;4954223;29;20835;-50
2023/01/09 00:54:28;;;;;;;3.90;3.60;;;5.90;1.00;;;;;;4945299;29;20495;-49
2023/01/09 00:56:55;;;;;;;6.43;3.70;;;5.80;1.00;;;;;;4954821;29;20468;-49
2023/01/09 00:59:21;;;;;;;3.80;3.47;;;5.80;1.00;;;;;;4946516;29;20532;-49
2023/01/09 01:01:47;;;;;;;5.13;4.00;;;5.80;1.00;;;;;;4955073;29;20488;-49
2023/01/09 01:09:42;;;;;;;3.80;3.50;;;5.90;1.00;;;;;;4937459;29;20442;-50
2023/01/09 01:12:08;;;;;;;4.07;3.77;;;5.90;1.00;;;;;;4949275;29;20480;-49
2023/01/09 01:14:35;;;;;;;6.47;4.00;;;5.90;1.00;;;;;;4951541;29;20197;-50
2023/01/09 01:17:01;;;;;;;5.00;4.17;;;5.90;1.00;;;;;;4948120;29;20201;-49
2023/01/09 01:19:27;;;;;;;4.60;3.93;;;6.00;1.00;;;;;;4952341;29;21256;-49
2023/01/09 01:21:54;;;;;;;6.50;3.73;;;5.90;1.00;;;;;;4947852;28;20453;-50
2023/01/09 01:24:19;;;;;;;7.40;4.10;;;5.90;1.00;;;;;;4952461;29;20635;-49
2023/01/09 01:26:46;;;;;;;4.87;3.53;;;6.00;1.00;;;;;;4951140;28;20445;-50
2023/01/09 01:29:12;;;;;;;4.70;3.90;;;6.00;1.00;;;;;;4943462;29;20654;-52
2023/01/09 01:31:37;;;;;;;4.03;3.67;;;6.00;1.00;;;;;;4944397;29;20441;-50
2023/01/09 01:34:03;;;;;;;4.37;3.73;;;5.90;1.00;;;;;;4954483;28;20735;-49
2023/01/09 01:36:28;;;;;;;5.33;4.00;;;5.90;1.00;;;;;;4953943;29;20256;-49
2023/01/09 01:38:54;;;;;;;5.43;3.70;;;5.80;1.00;;;;;;4954143;29;20202;-49
2023/01/09 01:41:29;;;;;;;5.33;3.90;;;5.80;1.00;;;;;;4953528;28;20220;-49
2023/01/09 01:43:56;;;;;;;7.23;4.70;;;5.80;1.00;;;;;;4942912;29;20205;-49
2023/01/09 01:46:22;;;;;;;3.90;3.50;;;5.80;1.00;;;;;;4947601;29;20454;-49
2023/01/09 01:48:52;;;;;;;6.37;4.03;;;5.80;1.00;;;;;;4937150;29;20484;-52
2023/01/09 01:51:20;;;;;;;4.73;3.97;;;5.80;1.00;;;;;;4954767;29;20197;-50
2023/01/09 01:53:52;;;;;;;4.73;4.23;;;5.80;1.00;;;;;;4953140;29;20508;-50
2023/01/09 01:56:34;;;;;;;5.33;4.80;;;5.70;1.00;;;;;;4952538;29;20449;-50
2023/01/09 01:59:10;;;;;;;6.70;4.47;;;5.70;1.00;;;;;;4950735;29;21149;-49
2023/01/09 02:01:39;;;;;;;5.57;3.87;;;5.70;1.00;;;;;;4953636;29;20487;-50
2023/01/09 02:04:06;;;;;;;4.53;4.00;;;5.80;1.00;;;;;;4954307;28;20422;-50
2023/01/09 02:06:33;;;;;;;6.53;4.10;;;5.80;1.00;;;;;;4953607;28;20444;-49
2023/01/09 02:09:01;;;;;;;4.30;3.90;;;5.80;1.00;;;;;;4953003;29;20445;-50
2023/01/09 02:11:27;;;;;;;6.60;4.30;;;5.80;1.00;;;;;;4954213;29;20484;-49
2023/01/09 02:13:53;;;;;;;6.13;4.23;;;5.80;1.00;;;;;;4953744;29;20571;-49
2023/01/09 02:16:29;;;;;;;6.47;3.90;;;5.80;1.00;;;;;;4953083;29;20548;-49
2023/01/09 02:19:15;;;;;;;4.40;3.90;;;5.90;1.00;;;;;;4953841;29;20173;-49
2023/01/09 02:22:03;;;;;;;3.70;3.40;;;6.00;1.00;;;;;;4953970;29;21207;-49
2023/01/09 02:24:41;;;;;;;5.13;4.10;;;6.00;1.00;;;;;;4953706;29;20468;-48
2023/01/09 02:27:44;;;;;;;7.10;4.13;;;6.10;1.00;;;;;;4947667;28;20445;-49
2023/01/09 02:30:30;;;;;;;4.30;3.80;;;6.10;1.00;;;;;;4954803;29;20923;-48
2023/01/09 02:33:12;;;;;;;4.40;4.00;;;6.20;1.00;;;;;;4948289;28;20487;-48
2023/01/09 02:35:59;;;;;;;5.97;4.30;;;6.10;1.00;;;;;;4948449;29;20443;-49
2023/01/09 02:38:45;;;;;;;8.23;4.03;;;6.10;1.00;;;;;;4937828;28;20461;-48
2023/01/09 02:41:18;;;;;;;7.00;4.93;;;6.20;1.00;;;;;;4940778;29;20448;-49
2023/01/09 02:43:43;;;;;;;9.93;5.53;;;6.20;1.00;;;;;;4938279;29;20442;-56
2023/01/09 02:46:21;;;;;;;5.70;4.33;;;6.20;1.00;;;;;;4953240;29;21029;-49
2023/01/09 02:48:51;;;;;;;6.27;4.30;;;6.20;1.00;;;;;;4936934;29;20231;-48
2023/01/09 02:51:35;;;;;;;5.60;4.30;;;6.30;1.00;;;;;;4935376;29;20940;-49
2023/01/09 02:54:19;;;;;;;5.23;4.40;;;6.30;1.00;;;;;;4945740;28;20465;-49
2023/01/09 02:57:13;;;;;;;4.70;4.30;;;6.40;1.00;;;;;;4950578;29;20508;-48
2023/01/09 03:00:11;;;;;;;9.53;4.60;;;6.40;1.00;;;;;;4951309;29;20460;-48
2023/01/09 03:02:46;;;;;;;6.93;3.80;;;6.50;1.00;;;;;;4952230;29;20444;-48
2023/01/09 03:05:30;;;;;;;5.80;4.33;;;6.50;1.00;;;;;;4951105;28;20493;-48
2023/01/09 03:08:10;;;;;;;5.80;4.27;;;6.60;1.00;;;;;;4934678;29;20447;-48
2023/01/09 03:10:42;;;;;;;4.20;3.80;;;6.50;1.00;;;;;;4952997;29;20484;-48
2023/01/09 03:13:12;;;;;;;5.77;4.20;;;6.50;1.00;;;;;;4952498;28;21033;-48
2023/01/09 03:15:41;;;;;;;5.03;3.73;;;6.60;1.00;;;;;;4952015;29;20954;-49
2023/01/09 03:18:09;;;;;;;4.80;3.40;;;6.60;1.00;;;;;;4951599;28;20508;-49
2023/01/09 03:20:36;;;;;;;5.90;4.13;;;6.60;1.00;;;;;;4952977;29;20417;-49
2023/01/09 03:23:04;;;;;;;6.20;3.90;;;6.60;1.00;;;;;;4951907;29;20489;-49
2023/01/09 03:25:31;;;;;;;4.93;3.93;;;6.60;1.00;;;;;;4952491;29;20982;-50
2023/01/09 03:28:02;;;;;;;4.60;3.60;;;6.60;1.00;;;;;;4949948;28;20449;-49
2023/01/09 03:30:30;;;;;;;3.80;3.40;;;6.60;1.00;;;;;;4951658;29;20552;-49
2023/01/09 03:32:56;;;;;;;4.50;3.97;;;6.60;1.00;;;;;;4950851;29;20476;-48
2023/01/09 03:35:23;;;;;;;5.43;4.07;;;6.60;1.00;;;;;;4950718;28;20468;-48
2023/01/09 03:37:50;;;;;;;4.43;3.70;;;6.70;1.00;;;;;;4951811;29;20484;-48
2023/01/09 03:40:17;;;;;;;4.30;3.90;;;6.80;1.00;;;;;;4951455;28;20978;-49
2023/01/09 03:42:42;;;;;;;5.37;3.70;;;6.80;1.00;;;;;;4951773;28;20543;-49
2023/01/09 03:45:08;;;;;;;4.97;4.00;;;6.80;1.00;;;;;;4952353;29;20516;-48
2023/01/09 03:47:34;;;;;;;4.63;3.40;;;6.80;1.00;;;;;;4951383;29;20194;-49
2023/01/09 03:50:00;;;;;;;3.70;3.23;;;6.80;99.90;;;;;;4928552;29;20479;-49
2023/01/09 03:52:25;;;;;;;5.10;3.87;;;6.90;99.90;;;;;;4956687;29;20209;-49
2023/01/09 03:54:51;;;;;;;5.07;3.53;;;6.80;99.90;;;;;;4954566;29;20193;-48
2023/01/09 03:57:16;;;;;;;3.73;2.97;;;6.80;99.90;;;;;;4955042;29;20201;-49
2023/01/09 03:59:42;;;;;;;3.37;3.10;;;6.90;99.90;;;;;;4955622;28;20217;-48
2023/01/09 04:02:07;;;;;;;4.30;3.83;;;6.90;99.90;;;;;;4955542;28;20201;-48
2023/01/09 04:04:33;;;;;;;4.73;3.50;;;6.80;99.90;;;;;;4954385;29;20201;-49
2023/01/09 04:06:59;;;;;;;4.20;3.53;;;6.80;99.90;;;;;;4954626;29;20648;-48
2023/01/09 04:09:24;;;;;;;5.30;3.47;;;6.90;99.90;;;;;;4955265;28;20616;-48
2023/01/09 04:11:50;;;;;;;4.03;3.20;;;6.90;99.90;;;;;;4956011;29;20198;-48
2023/01/09 04:14:16;;;;;;;3.47;3.17;;;6.90;99.90;;;;;;4954437;29;20602;-49
2023/01/09 04:16:41;;;;;;;3.93;3.17;;;6.90;99.90;;;;;;4954768;29;20272;-48
2023/01/09 04:19:07;;;;;;;3.50;3.20;;;7.00;99.90;;;;;;4955836;29;20181;-48
2023/01/09 04:21:33;;;;;;;4.47;3.40;;;6.90;99.90;;;;;;4937106;28;20193;-48
2023/01/09 04:23:58;;;;;;;5.93;3.53;;;6.90;99.90;;;;;;4955541;29;20240;-48
2023/01/09 04:26:24;;;;;;;3.93;3.50;;;6.90;99.90;;;;;;4954652;29;20277;-49
2023/01/09 04:28:50;;;;;;;3.77;3.37;;;6.90;99.90;;;;;;4954145;29;20197;-48
2023/01/09 04:31:15;;;;;;;4.37;3.53;;;6.90;99.90;;;;;;4955432;29;20253;-48
2023/01/09 04:33:41;;;;;;;4.03;3.60;;;6.90;99.90;;;;;;4954950;28;20213;-48
2023/01/09 04:36:07;;;;;;;4.03;3.63;;;6.90;99.90;;;;;;4936676;29;20218;-48
2023/01/09 04:38:32;;;;;;;4.60;2.80;;;6.90;1.00;;;;;;4950917;29;20632;-48
2023/01/09 04:40:58;;;;;;;4.13;3.70;;;7.00;1.00;;;;;;4953580;29;20197;-48
2023/01/09 04:43:24;;;;;;;8.30;3.60;;;7.00;1.00;;;;;;4954634;29;20193;-48
2023/01/09 04:45:50;;;;;;;3.57;3.27;;;7.00;1.00;;;;;;4954396;29;20201;-48
2023/01/09 04:48:15;;;;;;;4.00;2.97;;;7.10;1.00;;;;;;4953656;29;20453;-48
2023/01/09 04:50:41;;;;;;;3.00;2.70;;;7.00;1.00;;;;;;4954721;29;20204;-48
2023/01/09 04:53:06;;;;;;;4.77;3.10;;;7.10;1.00;;;;;;4953475;29;20709;-48
2023/01/09 04:55:32;;;;;;;8.50;3.63;;;7.10;1.00;;;;;;4953744;29;20243;-48
2023/01/09 04:57:58;;;;;;;8.50;3.30;;;7.00;1.00;;;;;;4953488;29;20262;-48
2023/01/09 05:00:24;;;;;;;4.13;2.90;;;7.00;1.00;;;;;;4953470;28;20445;-48
2023/01/09 05:02:50;;;;;;;5.50;3.40;;;7.00;1.00;;;;;;4953542;29;20444;-48
2023/01/09 05:05:15;;;;;;;6.10;3.60;;;7.00;1.00;;;;;;4953021;29;20291;-48
2023/01/09 05:07:41;;;;;;;4.33;3.63;;;7.00;1.00;;;;;;4953367;29;20190;-48
2023/01/09 05:10:08;;;;;;;5.70;3.77;;;7.00;1.00;;;;;;4953202;28;20198;-48
2023/01/09 05:12:35;;;;;;;3.73;2.97;;;7.00;1.00;;;;;;4954200;29;20272;-50
2023/01/09 05:15:01;;;;;;;4.50;3.20;;;7.00;1.00;;;;;;4953912;29;20441;-48
2023/01/09 05:17:27;;;;;;;5.00;3.40;;;7.00;1.00;;;;;;4937444;29;20461;-48
2023/01/09 05:19:52;;;;;;;4.57;3.40;;;7.00;1.00;;;;;;4952780;29;20468;-48
2023/01/09 05:22:18;;;;;;;3.83;3.30;;;7.10;1.00;;;;;;4954457;29;20186;-48
2023/01/09 05:24:44;;;;;;;3.43;3.13;;;7.10;1.00;;;;;;4953569;29;20237;-48
2023/01/09 05:27:09;;;;;;;4.10;3.40;;;7.10;1.00;;;;;;4953188;29;20201;-49
2023/01/09 05:29:35;;;;;;;7.20;3.97;;;7.10;1.00;;;;;;4953948;29;20208;-48
2023/01/09 05:32:00;;;;;;;3.53;3.23;;;7.00;1.00;;;;;;4956745;28;20201;-48
2023/01/09 05:34:26;;;;;;;4.07;3.30;;;7.00;1.00;;;;;;4953854;29;20197;-48
2023/01/09 05:36:52;;;;;;;4.47;3.83;;;7.10;1.00;;;;;;4952850;29;20225;-48
2023/01/09 05:39:17;;;;;;;3.60;3.30;;;7.20;1.00;;;;;;4935963;29;20197;-48
2023/01/09 05:41:43;;;;;;;5.53;3.40;;;7.10;1.00;;;;;;4943603;28;20217;-48
2023/01/09 05:44:08;;;;;;;5.47;4.03;;;7.10;1.00;;;;;;4945523;29;20260;-48
2023/01/09 05:46:34;;;;;;;5.23;4.53;;;7.10;1.00;;;;;;4953398;28;20206;-48
2023/01/09 05:48:59;;;;;;;5.60;4.00;;;7.00;1.00;;;;;;4952462;29;20652;-48
2023/01/09 05:51:25;;;;;;;4.23;3.03;;;7.00;1.00;;;;;;4952732;28;20573;-48
2023/01/09 05:53:51;;;;;;;5.17;4.10;;;7.00;1.00;;;;;;4954261;29;20245;-48
2023/01/09 05:56:16;;;;;;;3.63;3.23;;;7.00;1.00;;;;;;4951141;29;20198;-48
2023/01/09 05:58:42;;;;;;;3.80;2.50;;;6.90;1.00;;;;;;4953707;29;20190;-48
2023/01/09 06:01:08;;;;;;;2.20;2.00;;;6.90;1.00;;;;;;4951809;29;20195;-48
2023/01/09 06:03:33;;;;;;;3.63;2.50;;;7.00;1.00;;;;;;4951914;29;20670;-48
2023/01/09 06:05:59;;;;;;;3.00;2.80;;;6.90;1.00;;;;;;4952694;29;20213;-48
2023/01/09 06:08:24;;;;;;;3.57;3.27;;;6.90;1.00;;;;;;4953371;29;20208;-48
2023/01/09 06:10:50;;;;;;;2.70;2.40;;;6.90;1.00;;;;;;4932902;29;20201;-48
2023/01/09 06:13:16;;;;;;;2.90;2.23;;;6.90;1.00;;;;;;4948309;28;20236;-48
2023/01/09 06:15:41;;;;;;;4.77;2.50;;;6.90;1.00;;;;;;4935285;29;20719;-48
2023/01/09 06:18:07;;;;;;;2.40;2.20;;;6.90;1.00;;;;;;4952413;29;20189;-48
2023/01/09 06:20:33;;;;;;;2.60;2.40;;;6.90;1.00;;;;;;4953666;28;20189;-48
2023/01/09 06:22:58;;;;;;;2.60;2.37;;;6.90;1.00;;;;;;4953615;28;20234;-48
2023/01/09 06:25:24;;;;;;;3.00;2.80;;;6.90;1.00;;;;;;4952418;29;20229;-48
2023/01/09 06:27:51;;;;;;;2.87;2.67;;;6.90;1.00;;;;;;4951712;29;20205;-50
2023/01/09 06:30:17;;;;;;;2.87;2.57;;;6.90;1.00;;;;;;4952579;29;20193;-48
2023/01/09 06:32:43;;;;;;;3.80;2.80;;;6.80;1.00;;;;;;4951191;28;20877;-48
2023/01/09 06:35:09;;;;;;;2.90;2.70;;;6.80;1.00;;;;;;4949496;29;20456;-48
2023/01/09 06:37:35;;;;;;;3.10;2.90;;;6.80;1.00;;;;;;4953340;28;20285;-49
2023/01/09 06:40:01;;;;;;;3.50;2.90;;;6.90;1.00;;;;;;4935730;28;20543;-48
2023/01/09 06:42:26;;;;;;;4.50;3.67;;;6.90;1.00;;;;;;4951777;28;20300;-48
2023/01/09 06:44:52;;;;;;;6.30;3.50;;;6.90;1.00;;;;;;4951185;29;20194;-48
2023/01/09 06:47:17;;;;;;;4.00;3.60;;;6.90;1.00;;;;;;4950688;29;20190;-48
2023/01/09 06:49:43;;;;;;;13.27;3.43;;;6.90;1.00;;;;;;4962680;28;20662;-48
2023/01/09 06:52:08;;;;;;;7.10;3.70;;;6.90;1.00;;;;;;4954339;28;20577;-49
2023/01/09 06:54:34;;;;;;;6.07;4.40;;;6.90;1.00;;;;;;4952775;29;20541;-48
2023/01/09 06:57:00;;;;;;;5.57;4.57;;;6.90;1.00;;;;;;4952876;29;20264;-48
2023/01/09 06:59:26;;;;;;;4.43;4.00;;;6.90;1.00;;;;;;4947314;29;20957;-48
2023/01/09 07:01:51;;;;;;;5.03;4.23;;;6.90;1.00;;;;;;4949880;28;20258;-48
2023/01/09 07:04:17;;;;;;;5.43;4.60;;;6.80;1.00;;;;;;4949953;28;20198;-48
2023/01/09 07:06:47;;;;;;;6.57;4.70;;;6.90;1.00;;;;;;4951460;29;20591;-48
2023/01/09 07:09:12;;;;;;;6.07;4.70;;;6.90;1.00;;;;;;4954148;28;20795;-48
2023/01/09 07:11:39;;;;;;;5.73;4.67;;;6.90;1.00;;;;;;4952648;28;20449;-48
2023/01/09 07:14:05;;;;;;;6.60;5.67;;;6.80;1.00;;;;;;4953629;28;20223;-52
2023/01/09 07:16:32;;;;;;;6.80;5.70;;;6.80;1.00;;;;;;4953816;29;20509;-48
2023/01/09 07:18:58;;;;;;;6.83;5.83;;;6.80;1.00;;;;;;4952742;29;20543;-48
2023/01/09 07:21:23;;;;;;;8.33;6.27;;;6.90;1.00;;;;;;4952118;29;20528;-48
2023/01/09 07:23:49;;;;;;;9.77;7.20;;;6.90;1.00;;;;;;4952908;28;20758;-49
2023/01/09 07:26:14;;;;;;;7.23;6.17;;;6.90;1.00;;;;;;4957355;29;20899;-49
2023/01/09 07:28:40;;;;;;;9.20;7.30;;;6.80;1.00;;;;;;4955717;28;20200;-48
2023/01/09 07:31:07;;;;;;;9.13;6.80;;;6.80;1.00;;;;;;4945880;28;20202;-49
2023/01/09 07:33:33;;;;;;;11.90;7.63;;;6.80;1.00;;;;;;4953137;28;20222;-48
2023/01/09 07:35:59;;;;;;;7.77;6.53;;;6.80;1.00;;;;;;4948823;28;20453;-47
2023/01/09 07:38:25;;;;;;;12.23;7.33;;;6.80;1.00;;;;;;4953054;28;20456;-47
2023/01/09 07:40:50;;;;;;;10.70;7.93;;;6.80;1.00;;;;;;4950451;28;20198;-47
2023/01/09 07:43:16;;;;;;;11.33;8.07;;;6.90;1.00;;;;;;4954533;29;20197;-48
2023/01/09 07:45:42;;;;;;;12.47;8.70;;;6.90;1.00;;;;;;4956878;29;20202;-47
2023/01/09 07:48:08;;;;;;;14.20;8.70;;;6.90;1.00;;;;;;4957128;29;20222;-47
2023/01/09 07:50:33;;;;;;;10.90;8.33;;;6.80;1.00;;;;;;4955548;29;20688;-47
2023/01/09 07:52:59;;;;;;;11.93;8.60;;;6.80;1.00;;;;;;4957047;29;20297;-48
2023/01/09 07:55:24;;;;;;;10.80;8.17;;;6.80;1.00;;;;;;4958510;29;20217;-47
2023/01/09 07:57:51;;;;;;;13.57;8.97;;;6.80;1.00;;;;;;4954945;29;20197;-48
2023/01/09 08:00:19;;;;;;;13.80;8.63;;;6.80;1.00;;;;;;4954406;28;20198;-47
2023/01/09 08:02:49;;;;;;;11.83;8.87;;;6.80;1.00;;;;;;4954900;29;20837;-47
2023/01/09 10:36:52;;;;;;;13.97;8.30;;;6.50;99.90;;;;;;4959635;28;21460;-47
2023/01/09 10:39:27;;;;;;;15.90;7.77;;;6.50;99.90;;;;;;4953286;29;20433;-47
2023/01/09 10:42:30;;;;;;;17.50;8.00;;;6.50;99.90;;;;;;4952765;29;20452;-47
2023/01/09 10:45:36;;;;;;;17.47;7.90;;;6.60;99.90;;;;;;4950392;28;20451;-47
2023/01/09 10:48:24;;;;;;;16.50;6.43;;;6.70;99.90;;;;;;4945646;29;20445;-49
2023/01/09 10:50:53;;;;;;;11.00;5.77;;;6.60;16.20;;;;;;4952542;29;20437;-49
2023/01/09 10:53:29;;;;;;;16.13;6.60;;;6.60;1.00;;;;;;4952454;29;20844;-50
2023/01/09 10:56:01;;;;;;;16.10;6.10;;;6.60;1.00;;;;;;4953585;29;20409;-50
2023/01/09 10:58:28;;;;;;;22.03;6.40;;;6.60;1.00;;;;;;4953972;28;20529;-51
2023/01/09 11:00:55;;;;;;;12.53;6.30;;;6.70;1.00;;;;;;4958904;28;20447;-50
2023/01/09 11:03:23;;;;;;;14.73;6.37;;;6.80;1.00;;;;;;4959291;28;20417;-50
2023/01/09 11:05:51;;;;;;;15.30;6.37;;;6.80;1.00;;;;;;4956814;28;21045;-50
2023/01/09 11:08:40;;;;;;;13.33;6.00;;;6.80;1.00;;;;;;4959668;29;20422;-51
2023/01/09 11:11:07;;;;;;;16.13;6.57;;;6.70;1.00;;;;;;4959613;28;20440;-49
2023/01/09 11:13:35;;;;;;;15.43;6.50;;;6.70;1.00;;;;;;4956110;29;20499;-50
2023/01/09 11:16:09;;;;;;;8.47;5.70;;;6.70;1.00;;;;;;4960930;28;20934;-50
2023/01/09 11:18:47;;;;;;;12.90;5.57;;;7.00;1.00;;;;;;4957180;28;20440;-50
2023/01/09 11:21:34;;;;;;;14.20;6.40;;;7.20;1.00;;;;;;4960740;28;20523;-49
2023/01/09 11:24:28;;;;;;;10.50;5.93;;;7.20;99.90;;;;;;4958943;29;20484;-47
2023/01/09 11:27:22;;;;;;;13.20;6.50;;;7.20;55.30;;;;;;4943698;28;21006;-47
2023/01/09 11:30:05;;;;;;;11.50;4.90;;;7.20;4.30;;;;;;4958452;29;20437;-48
2023/01/09 11:32:32;;;;;;;10.40;5.03;;;7.20;1.00;;;;;;4959237;29;20405;-48
2023/01/09 11:34:58;;;;;;;14.83;7.00;;;7.30;1.00;;;;;;4957882;28;20480;-47
2023/01/09 11:37:29;;;;;;;8.80;5.30;;;7.40;1.00;;;;;;4958277;29;20487;-47
2023/01/09 11:39:57;;;;;;;10.20;5.60;;;7.50;1.00;;;;;;4959068;29;20209;-48
2023/01/09 11:45:23;;;;;;;15.57;6.00;;;8.00;1.00;;;;;;4958547;28;20484;-47
2023/01/09 11:47:48;;;;;;;9.20;4.97;;;7.90;99.90;;;;;;4957950;28;20461;-47
2023/01/09 11:50:20;;;;;;;16.10;5.93;;;7.80;99.90;;;;;;4958282;28;20445;-47
2023/01/09 11:53:06;;;;;;;20.33;5.90;;;7.80;99.90;;;;;;4957740;28;20233;-47
2023/01/09 11:55:31;;;;;;;14.73;5.80;;;7.90;99.90;;;;;;4958852;28;20410;-47
2023/01/09 11:57:57;;;;;;;13.07;5.93;;;8.00;99.90;;;;;;4950696;28;20532;-47
2023/01/09 12:00:27;;;;;;;17.17;5.17;;;7.90;99.90;;;;;;4957965;29;20257;-47
2023/01/09 12:03:23;;;;;;;11.20;5.53;;;7.80;1.00;;;;;;4958817;28;20208;-48
2023/01/09 12:05:55;;;;;;;12.73;5.60;;;7.60;99.90;;;;;;4939771;29;20441;-47
2023/01/09 12:08:52;;;;;;;11.50;5.20;;;7.50;99.90;;;;;;4941571;28;21119;-48
2023/01/09 12:11:51;;;;;;;9.50;5.70;;;7.40;99.90;;;;;;4954924;28;20532;-47
2023/01/09 12:14:39;;;;;;;14.80;5.70;;;7.30;1.00;;;;;;4943601;29;21010;-48
2023/01/09 12:17:42;;;;;;;12.00;5.60;;;7.20;1.00;;;;;;4956055;28;20526;-48
2023/01/09 12:20:53;;;;;;;9.93;5.33;;;7.30;99.90;;;;;;4955750;28;20452;-48
2023/01/09 12:23:30;;;;;;;17.03;7.00;;;7.30;99.90;;;;;;4941711;28;20938;-48
2023/01/09 12:26:08;;;;;;;17.30;6.33;;;7.40;99.90;;;;;;4956245;28;20481;-50
2023/01/09 12:28:45;;;;;;;16.63;6.93;;;7.40;99.90;;;;;;4957258;29;20418;-51
2023/01/09 12:31:23;;;;;;;15.17;7.00;;;7.40;99.90;;;;;;4956521;28;20492;-50
2023/01/09 12:34:01;;;;;;;12.80;7.53;;;7.40;99.90;;;;;;4956928;29;20469;-51
2023/01/09 12:36:36;;;;;;;14.60;6.77;;;7.40;99.90;;;;;;4955826;28;20492;-50
2023/01/09 12:39:26;;;;;;;13.00;6.70;;;7.40;99.90;;;;;;4957224;29;20417;-50
2023/01/09 12:42:01;;;;;;;7.83;6.20;;;7.40;99.90;;;;;;4955358;28;20477;-51
2023/01/09 12:44:52;;;;;;;14.83;7.07;;;7.40;99.90;;;;;;4957105;29;20421;-51
2023/01/09 12:47:39;;;;;;;13.40;6.90;;;7.50;99.90;;;;;;4954931;28;20834;-53
2023/01/09 12:50:13;;;;;;;10.67;6.90;;;7.50;99.90;;;;;;4956226;29;20457;-50
2023/01/09 12:52:47;;;;;;;17.30;8.50;;;7.50;99.90;;;;;;4959539;28;20478;-48
2023/01/09 12:55:26;;;;;;;16.37;7.37;;;7.50;99.90;;;;;;4956659;29;20441;-48
2023/01/09 12:57:54;;;;;;;15.40;9.27;;;7.50;1.00;;;;;;4956864;29;20429;-48
2023/01/09 13:00:29;;;;;;;13.37;8.20;;;7.60;99.90;;;;;;4956068;28;20421;-48
2023/01/09 13:02:58;;;;;;;13.10;6.77;;;7.50;99.90;;;;;;4954280;29;20877;-48
2023/01/09 13:05:33;;;;;;;17.70;8.23;;;7.60;99.90;;;;;;4955018;29;21044;-48
2023/01/09 13:08:07;;;;;;;12.67;8.00;;;7.60;99.90;;;;;;4954945;29;20507;-48
2023/01/09 13:10:40;;;;;;;17.03;8.73;;;7.60;99.90;;;;;;4955230;29;20584;-48
2023/01/09 13:13:29;;;;;;;18.03;8.97;;;7.70;1.00;;;;;;4955225;29;20536;-47
2023/01/09 13:16:09;;;;;;;14.60;8.60;;;7.90;1.00;;;;;;4946424;28;20539;-48
2023/01/09 13:18:42;;;;;;;11.87;7.33;;;8.00;99.90;;;;;;4953568;28;20840;-47
2023/01/09 13:21:10;;;;;;;13.10;7.97;;;8.00;99.90;;;;;;4954281;28;20529;-50
2023/01/09 13:24:02;;;;;;;16.30;9.60;;;8.10;5.90;;;;;;4953793;29;20453;-50
2023/01/09 13:26:34;;;;;;;17.53;9.53;;;8.00;1.00;;;;;;4954529;29;20432;-51
2023/01/09 13:29:18;;;;;;;14.03;8.77;;;7.90;25.30;;;;;;4946577;29;20449;-50
2023/01/09 13:32:21;;;;;;;19.40;9.10;;;7.90;58.90;;;;;;4954070;28;21015;-50
2023/01/09 13:34:51;;;;;;;13.30;9.27;;;7.80;62.20;;;;;;4951842;29;20485;-50
2023/01/09 13:37:48;;;;;;;12.20;8.50;;;7.80;99.90;;;;;;4950985;29;20551;-51
2023/01/09 13:40:19;;;;;;;15.33;7.90;;;7.80;99.90;;;;;;4949438;29;20532;-50
2023/01/09 13:43:04;;;;;;;15.63;8.97;;;7.80;99.90;;;;;;4950662;29;20449;-51
2023/01/09 13:45:35;;;;;;;14.07;9.00;;;7.70;99.90;;;;;;4944784;29;20508;-51
2023/01/09 13:48:12;;;;;;;17.53;8.33;;;7.60;99.90;;;;;;4942833;28;20425;-50
2023/01/09 13:50:40;;;;;;;13.30;8.00;;;7.60;99.90;;;;;;4947074;28;20460;-50
2023/01/09 13:53:17;;;;;;;14.47;8.43;;;7.60;99.90;;;;;;4931418;28;20581;-50
2023/01/09 13:56:01;;;;;;;15.43;8.80;;;7.60;99.90;;;;;;4946959;28;20430;-51
2023/01/09 13:58:53;;;;;;;14.77;8.53;;;7.60;99.90;;;;;;4948442;28;20453;-50
2023/01/09 14:01:26;;;;;;;17.17;9.00;;;7.60;99.90;;;;;;4943623;28;20432;-51
2023/01/09 14:04:13;;;;;;;13.63;8.57;;;7.60;1.00;;;;;;4945791;29;20450;-50
2023/01/09 14:06:39;;;;;;;11.10;8.27;;;7.60;1.00;;;;;;4950320;29;21147;-50
2023/01/09 14:09:20;;;;;;;15.37;8.43;;;7.50;1.00;;;;;;4934009;29;20438;-50
2023/01/09 14:11:47;;;;;;;16.10;8.50;;;7.50;1.00;;;;;;4949920;28;20615;-50
2023/01/09 14:14:32;;;;;;;13.47;8.40;;;7.50;1.00;;;;;;4949910;29;20472;-50
2023/01/09 14:16:58;;;;;;;14.40;8.73;;;7.50;1.00;;;;;;4931346;29;20446;-50
2023/01/09 14:19:37;;;;;;;12.10;8.03;;;7.60;1.00;;;;;;4940661;28;20444;-51
2023/01/09 14:22:05;;;;;;;15.70;8.23;;;7.60;1.00;;;;;;4950060;29;20445;-51
2023/01/09 14:24:45;;;;;;;17.67;8.30;;;7.60;1.00;;;;;;4951222;29;20523;-50
2023/01/09 14:27:48;;;;;;;23.77;8.93;;;7.50;1.00;;;;;;4949343;28;20449;-51
2023/01/09 14:30:30;;;;;;;12.80;7.33;;;7.50;1.00;;;;;;4934658;29;20425;-50
2023/01/09 14:33:17;;;;;;;15.60;7.50;;;7.50;1.00;;;;;;4933938;29;20470;-51
2023/01/09 14:36:03;;;;;;;18.90;6.27;;;7.60;1.00;;;;;;4943774;29;20839;-50
2023/01/09 14:38:54;;;;;;;12.80;6.47;;;7.50;1.00;;;;;;4953756;29;20429;-51
2023/01/09 14:44:43;;;;;;;10.80;6.67;;;7.50;1.00;;;;;;4934465;29;20422;-51
2023/01/09 14:47:34;;;;;;;10.83;6.10;;;7.40;1.00;;;;;;4943606;29;20449;-51
2023/01/09 14:50:37;;;;;;;11.73;7.03;;;7.40;1.00;;;;;;4953140;28;20413;-51
2023/01/09 14:53:09;;;;;;;10.73;6.87;;;7.30;38.90;;;;;;4953772;28;20476;-51
2023/01/09 14:55:44;;;;;;;10.40;7.20;;;7.20;99.20;;;;;;4953303;28;20430;-51
2023/01/09 14:58:30;;;;;;;14.87;7.90;;;7.20;99.90;;;;;;4951896;29;20953;-52
2023/01/09 15:01:02;;;;;;;14.80;7.37;;;7.20;99.90;;;;;;4943031;29;20429;-51
2023/01/09 15:03:43;;;;;;;17.23;7.40;;;7.10;99.90;;;;;;4953128;29;20465;-52
2023/01/09 15:06:14;;;;;;;14.50;7.40;;;7.10;99.90;;;;;;4952656;28;20445;-51
2023/01/09 15:08:44;;;;;;;14.10;7.37;;;7.10;99.90;;;;;;4954144;28;20986;-52
2023/01/09 15:11:11;;;;;;;11.70;6.60;;;7.10;99.90;;;;;;4953477;29;20476;-52
2023/01/09 15:13:42;;;;;;;11.67;6.90;;;7.00;99.90;;;;;;4953200;29;20461;-51
2023/01/09 15:16:17;;;;;;;12.03;7.20;;;7.00;99.90;;;;;;4951827;29;20445;-52
2023/01/09 15:18:43;;;;;;;12.30;7.23;;;7.00;99.90;;;;;;4952546;29;20919;-52
2023/01/09 15:21:18;;;;;;;17.47;7.97;;;7.00;99.90;;;;;;4953007;29;20421;-52
2023/01/09 15:23:44;;;;;;;14.03;6.87;;;7.00;99.90;;;;;;4945064;28;20456;-51
2023/01/09 15:26:22;;;;;;;12.17;6.90;;;7.00;99.90;;;;;;4951385;29;20457;-51
2023/01/09 15:28:51;;;;;;;12.43;7.50;;;7.00;99.90;;;;;;4952901;29;20304;-52
2023/01/09 15:31:21;;;;;;;13.07;7.17;;;6.90;99.90;;;;;;4935879;29;20433;-52
2023/01/09 15:33:47;;;;;;;12.67;7.57;;;6.90;99.90;;;;;;4950469;29;20557;-52
2023/01/09 15:36:24;;;;;;;15.87;8.17;;;6.90;1.00;;;;;;4952557;29;20489;-52
2023/01/09 15:38:51;;;;;;;13.27;8.60;;;6.80;1.00;;;;;;4952720;28;20421;-51
2023/01/09 15:44:18;;;;;;;16.87;8.03;;;6.90;1.00;;;;;;4934052;29;20433;-52
2023/01/09 15:46:45;;;;;;;11.87;8.60;;;6.80;1.00;;;;;;4937297;29;20442;-51
2023/01/09 15:49:11;;;;;;;16.53;8.83;;;6.80;1.00;;;;;;4936546;29;20460;-51
2023/01/09 15:51:38;;;;;;;12.63;8.70;;;6.80;1.00;;;;;;4937406;29;20502;-51
2023/01/09 15:54:04;;;;;;;14.13;9.17;;;6.70;1.00;;;;;;4941278;29;20456;-55
2023/01/09 15:56:29;;;;;;;15.27;8.70;;;6.70;1.00;;;;;;4936336;29;20446;-52
2023/01/09 15:58:57;;;;;;;17.17;9.87;;;6.60;1.00;;;;;;4935833;29;20453;-52
2023/01/09 16:01:30;;;;;;;19.60;9.33;;;6.60;1.00;;;;;;4937397;29;20342;-52
2023/01/09 16:04:14;;;;;;;13.07;8.60;;;6.60;1.00;;;;;;4937981;29;20434;-52
2023/01/09 16:06:46;;;;;;;15.80;9.50;;;6.60;1.00;;;;;;4949206;29;21443;-52
2023/01/09 16:09:27;;;;;;;17.13;8.60;;;6.60;1.00;;;;;;4929737;29;20751;-52